sensor_id;sensor_type;location;lat;lon;timestamp;P1;durP1;ratioP1;P2;durP2;ratioP2
39890;SDS011;25564;53.312;9.790;2023-08-12T00:02:12;4.72;;;2.50;;
39890;SDS011;25564;53.312;9.790;2023-08-12T00:04:45;3.08;;;2.05;;
39890;SDS011;25564;53.312;9.790;2023-08-12T00:07:17;4.75;;;1.98;;
39890;SDS011;25564;53.312;9.790;2023-08-12T00:09:48;4.18;;;2.03;;
39890;SDS011;25564;53.312;9.790;2023-08-12T00:12:20;4.10;;;2.20;;
39890;SDS011;25564;53.312;9.790;2023-08-12T00:14:52;4.40;;;2.03;;
39890;SDS011;25564;53.312;9.790;2023-08-12T00:17:23;3.50;;;1.90;;
39890;SDS011;25564;53.312;9.790;2023-08-12T00:19:55;3.58;;;2.10;;
39890;SDS011;25564;53.312;9.790;2023-08-12T00:22:27;4.45;;;2.22;;
39890;SDS011;25564;53.312;9.790;2023-08-12T00:24:58;3.25;;;2.08;;
39890;SDS011;25564;53.312;9.790;2023-08-12T00:27:30;3.53;;;1.90;;
39890;SDS011;25564;53.312;9.790;2023-08-12T00:30:01;3.05;;;2.00;;
39890;SDS011;25564;53.312;9.790;2023-08-12T00:32:33;4.35;;;2.08;;
39890;SDS011;25564;53.312;9.790;2023-08-12T00:35:05;5.28;;;2.15;;
39890;SDS011;25564;53.312;9.790;2023-08-12T00:37:37;4.68;;;2.10;;
39890;SDS011;25564;53.312;9.790;2023-08-12T00:40:08;5.43;;;2.20;;
39890;SDS011;25564;53.312;9.790;2023-08-12T00:42:40;5.05;;;2.35;;
39890;SDS011;25564;53.312;9.790;2023-08-12T00:45:12;2.70;;;1.88;;
39890;SDS011;25564;53.312;9.790;2023-08-12T00:47:44;6.07;;;2.00;;
39890;SDS011;25564;53.312;9.790;2023-08-12T00:50:16;2.92;;;2.10;;
39890;SDS011;25564;53.312;9.790;2023-08-12T00:52:47;4.55;;;1.88;;
39890;SDS011;25564;53.312;9.790;2023-08-12T00:55:20;4.30;;;2.30;;
39890;SDS011;25564;53.312;9.790;2023-08-12T00:57:52;3.88;;;1.98;;
39890;SDS011;25564;53.312;9.790;2023-08-12T01:00:24;5.72;;;2.20;;
39890;SDS011;25564;53.312;9.790;2023-08-12T01:02:55;4.97;;;2.38;;
39890;SDS011;25564;53.312;9.790;2023-08-12T01:05:27;3.55;;;2.03;;
39890;SDS011;25564;53.312;9.790;2023-08-12T01:08:01;3.13;;;2.10;;
39890;SDS011;25564;53.312;9.790;2023-08-12T01:10:34;3.28;;;2.00;;
39890;SDS011;25564;53.312;9.790;2023-08-12T01:15:58;4.22;;;2.05;;
39890;SDS011;25564;53.312;9.790;2023-08-12T01:18:35;2.80;;;1.80;;
39890;SDS011;25564;53.312;9.790;2023-08-12T01:21:10;4.32;;;1.88;;
39890;SDS011;25564;53.312;9.790;2023-08-12T01:23:46;4.28;;;1.80;;
39890;SDS011;25564;53.312;9.790;2023-08-12T01:26:18;3.30;;;2.30;;
39890;SDS011;25564;53.312;9.790;2023-08-12T01:28:49;2.90;;;1.77;;
39890;SDS011;25564;53.312;9.790;2023-08-12T01:31:23;3.30;;;1.90;;
39890;SDS011;25564;53.312;9.790;2023-08-12T01:34:03;4.22;;;2.13;;
39890;SDS011;25564;53.312;9.790;2023-08-12T01:36:43;5.30;;;2.40;;
39890;SDS011;25564;53.312;9.790;2023-08-12T01:39:21;4.07;;;2.45;;
39890;SDS011;25564;53.312;9.790;2023-08-12T01:41:54;3.75;;;2.13;;
39890;SDS011;25564;53.312;9.790;2023-08-12T01:44:26;4.68;;;2.45;;
39890;SDS011;25564;53.312;9.790;2023-08-12T01:46:59;6.18;;;2.03;;
39890;SDS011;25564;53.312;9.790;2023-08-12T01:49:31;4.88;;;2.30;;
39890;SDS011;25564;53.312;9.790;2023-08-12T01:52:02;4.63;;;2.53;;
39890;SDS011;25564;53.312;9.790;2023-08-12T01:54:34;4.78;;;2.25;;
39890;SDS011;25564;53.312;9.790;2023-08-12T01:57:06;3.45;;;2.30;;
39890;SDS011;25564;53.312;9.790;2023-08-12T01:59:39;3.75;;;2.55;;
39890;SDS011;25564;53.312;9.790;2023-08-12T02:02:11;5.50;;;2.67;;
39890;SDS011;25564;53.312;9.790;2023-08-12T02:04:43;3.90;;;2.53;;
39890;SDS011;25564;53.312;9.790;2023-08-12T02:07:15;4.75;;;2.92;;
39890;SDS011;25564;53.312;9.790;2023-08-12T02:09:47;6.00;;;2.65;;
39890;SDS011;25564;53.312;9.790;2023-08-12T02:12:18;3.53;;;2.28;;
39890;SDS011;25564;53.312;9.790;2023-08-12T02:14:50;5.32;;;2.50;;
39890;SDS011;25564;53.312;9.790;2023-08-12T02:17:21;3.50;;;2.00;;
39890;SDS011;25564;53.312;9.790;2023-08-12T02:19:53;5.13;;;2.50;;
39890;SDS011;25564;53.312;9.790;2023-08-12T02:22:24;6.22;;;2.33;;
39890;SDS011;25564;53.312;9.790;2023-08-12T02:24:56;5.82;;;2.83;;
39890;SDS011;25564;53.312;9.790;2023-08-12T02:27:27;4.95;;;2.35;;
39890;SDS011;25564;53.312;9.790;2023-08-12T02:29:59;3.38;;;2.50;;
39890;SDS011;25564;53.312;9.790;2023-08-12T02:32:30;5.03;;;2.47;;
39890;SDS011;25564;53.312;9.790;2023-08-12T02:35:02;3.28;;;2.40;;
39890;SDS011;25564;53.312;9.790;2023-08-12T02:37:33;4.95;;;2.42;;
39890;SDS011;25564;53.312;9.790;2023-08-12T02:40:05;3.92;;;2.58;;
39890;SDS011;25564;53.312;9.790;2023-08-12T02:42:37;6.32;;;2.72;;
39890;SDS011;25564;53.312;9.790;2023-08-12T02:45:08;7.65;;;3.15;;
39890;SDS011;25564;53.312;9.790;2023-08-12T02:47:40;4.53;;;3.08;;
39890;SDS011;25564;53.312;9.790;2023-08-12T02:50:12;5.03;;;2.65;;
39890;SDS011;25564;53.312;9.790;2023-08-12T02:52:43;3.53;;;2.47;;
39890;SDS011;25564;53.312;9.790;2023-08-12T02:55:14;5.10;;;2.40;;
39890;SDS011;25564;53.312;9.790;2023-08-12T02:57:46;3.25;;;2.05;;
39890;SDS011;25564;53.312;9.790;2023-08-12T03:00:17;3.53;;;2.25;;
39890;SDS011;25564;53.312;9.790;2023-08-12T03:02:49;4.10;;;2.53;;
39890;SDS011;25564;53.312;9.790;2023-08-12T03:05:21;3.92;;;2.55;;
39890;SDS011;25564;53.312;9.790;2023-08-12T03:07:54;5.65;;;2.70;;
39890;SDS011;25564;53.312;9.790;2023-08-12T03:10:25;3.17;;;2.38;;
39890;SDS011;25564;53.312;9.790;2023-08-12T03:12:57;7.55;;;2.63;;
39890;SDS011;25564;53.312;9.790;2023-08-12T03:15:28;3.92;;;2.38;;
39890;SDS011;25564;53.312;9.790;2023-08-12T03:17:59;3.58;;;2.38;;
39890;SDS011;25564;53.312;9.790;2023-08-12T03:20:31;10.45;;;3.35;;
39890;SDS011;25564;53.312;9.790;2023-08-12T03:23:02;3.08;;;2.35;;
39890;SDS011;25564;53.312;9.790;2023-08-12T03:25:34;3.92;;;3.00;;
39890;SDS011;25564;53.312;9.790;2023-08-12T03:28:05;4.47;;;2.70;;
39890;SDS011;25564;53.312;9.790;2023-08-12T03:30:37;5.55;;;2.40;;
39890;SDS011;25564;53.312;9.790;2023-08-12T03:33:08;4.90;;;2.67;;
39890;SDS011;25564;53.312;9.790;2023-08-12T03:35:40;4.80;;;2.60;;
39890;SDS011;25564;53.312;9.790;2023-08-12T03:38:16;3.83;;;2.42;;
39890;SDS011;25564;53.312;9.790;2023-08-12T03:40:48;3.67;;;2.47;;
39890;SDS011;25564;53.312;9.790;2023-08-12T03:43:20;3.85;;;2.33;;
39890;SDS011;25564;53.312;9.790;2023-08-12T03:45:52;3.58;;;2.80;;
39890;SDS011;25564;53.312;9.790;2023-08-12T03:48:23;3.45;;;2.50;;
39890;SDS011;25564;53.312;9.790;2023-08-12T03:50:54;3.53;;;2.40;;
39890;SDS011;25564;53.312;9.790;2023-08-12T03:53:26;6.38;;;2.70;;
39890;SDS011;25564;53.312;9.790;2023-08-12T03:55:57;3.50;;;2.20;;
39890;SDS011;25564;53.312;9.790;2023-08-12T03:58:29;5.85;;;2.45;;
39890;SDS011;25564;53.312;9.790;2023-08-12T04:01:00;6.72;;;2.65;;
39890;SDS011;25564;53.312;9.790;2023-08-12T04:03:32;4.47;;;2.90;;
39890;SDS011;25564;53.312;9.790;2023-08-12T04:06:03;3.85;;;2.63;;
39890;SDS011;25564;53.312;9.790;2023-08-12T04:08:35;4.22;;;2.65;;
39890;SDS011;25564;53.312;9.790;2023-08-12T04:11:06;5.88;;;3.40;;
39890;SDS011;25564;53.312;9.790;2023-08-12T04:13:38;3.88;;;2.88;;
39890;SDS011;25564;53.312;9.790;2023-08-12T04:16:09;4.90;;;2.97;;
39890;SDS011;25564;53.312;9.790;2023-08-12T04:18:43;9.45;;;3.45;;
39890;SDS011;25564;53.312;9.790;2023-08-12T04:21:14;5.20;;;3.22;;
39890;SDS011;25564;53.312;9.790;2023-08-12T04:23:45;6.57;;;2.55;;
39890;SDS011;25564;53.312;9.790;2023-08-12T04:26:17;3.13;;;2.50;;
39890;SDS011;25564;53.312;9.790;2023-08-12T04:28:48;3.65;;;2.60;;
39890;SDS011;25564;53.312;9.790;2023-08-12T04:31:20;4.45;;;2.65;;
39890;SDS011;25564;53.312;9.790;2023-08-12T04:33:51;5.43;;;3.33;;
39890;SDS011;25564;53.312;9.790;2023-08-12T04:36:24;6.18;;;3.08;;
39890;SDS011;25564;53.312;9.790;2023-08-12T04:38:55;4.63;;;2.60;;
39890;SDS011;25564;53.312;9.790;2023-08-12T04:41:26;4.00;;;2.53;;
39890;SDS011;25564;53.312;9.790;2023-08-12T04:43:58;6.53;;;2.85;;
39890;SDS011;25564;53.312;9.790;2023-08-12T04:46:29;4.85;;;3.10;;
39890;SDS011;25564;53.312;9.790;2023-08-12T04:49:01;5.63;;;2.55;;
39890;SDS011;25564;53.312;9.790;2023-08-12T04:51:32;4.15;;;2.60;;
39890;SDS011;25564;53.312;9.790;2023-08-12T04:54:04;3.72;;;2.00;;
39890;SDS011;25564;53.312;9.790;2023-08-12T04:56:36;4.88;;;2.20;;
39890;SDS011;25564;53.312;9.790;2023-08-12T04:59:07;4.45;;;2.60;;
39890;SDS011;25564;53.312;9.790;2023-08-12T05:01:39;5.13;;;2.40;;
39890;SDS011;25564;53.312;9.790;2023-08-12T05:04:28;4.82;;;2.90;;
39890;SDS011;25564;53.312;9.790;2023-08-12T05:07:00;4.45;;;2.80;;
39890;SDS011;25564;53.312;9.790;2023-08-12T05:09:32;6.07;;;3.28;;
39890;SDS011;25564;53.312;9.790;2023-08-12T05:12:03;7.05;;;3.22;;
39890;SDS011;25564;53.312;9.790;2023-08-12T05:14:35;6.38;;;3.20;;
39890;SDS011;25564;53.312;9.790;2023-08-12T05:17:06;5.95;;;2.92;;
39890;SDS011;25564;53.312;9.790;2023-08-12T05:19:38;5.60;;;3.17;;
39890;SDS011;25564;53.312;9.790;2023-08-12T05:22:10;11.93;;;4.13;;
39890;SDS011;25564;53.312;9.790;2023-08-12T05:24:42;5.63;;;3.38;;
39890;SDS011;25564;53.312;9.790;2023-08-12T05:27:13;4.72;;;3.17;;
39890;SDS011;25564;53.312;9.790;2023-08-12T05:29:45;8.45;;;3.90;;
39890;SDS011;25564;53.312;9.790;2023-08-12T05:32:17;5.38;;;3.75;;
39890;SDS011;25564;53.312;9.790;2023-08-12T05:34:54;7.65;;;3.80;;
39890;SDS011;25564;53.312;9.790;2023-08-12T05:37:26;6.30;;;4.22;;
39890;SDS011;25564;53.312;9.790;2023-08-12T05:39:57;6.65;;;3.83;;
39890;SDS011;25564;53.312;9.790;2023-08-12T05:42:29;6.13;;;4.78;;
39890;SDS011;25564;53.312;9.790;2023-08-12T05:45:01;6.38;;;3.65;;
39890;SDS011;25564;53.312;9.790;2023-08-12T05:47:32;7.82;;;4.40;;
39890;SDS011;25564;53.312;9.790;2023-08-12T05:50:04;8.35;;;5.15;;
39890;SDS011;25564;53.312;9.790;2023-08-12T05:52:37;8.57;;;4.43;;
39890;SDS011;25564;53.312;9.790;2023-08-12T05:55:09;8.48;;;4.20;;
39890;SDS011;25564;53.312;9.790;2023-08-12T05:57:40;7.43;;;4.60;;
39890;SDS011;25564;53.312;9.790;2023-08-12T06:00:11;7.10;;;3.60;;
39890;SDS011;25564;53.312;9.790;2023-08-12T06:02:43;10.63;;;4.43;;
39890;SDS011;25564;53.312;9.790;2023-08-12T06:05:14;7.32;;;4.43;;
39890;SDS011;25564;53.312;9.790;2023-08-12T06:07:46;7.82;;;5.13;;
39890;SDS011;25564;53.312;9.790;2023-08-12T06:10:17;8.18;;;5.13;;
39890;SDS011;25564;53.312;9.790;2023-08-12T06:12:49;7.63;;;5.45;;
39890;SDS011;25564;53.312;9.790;2023-08-12T06:15:20;10.73;;;6.30;;
39890;SDS011;25564;53.312;9.790;2023-08-12T06:17:52;7.78;;;5.40;;
39890;SDS011;25564;53.312;9.790;2023-08-12T06:20:23;8.65;;;5.63;;
39890;SDS011;25564;53.312;9.790;2023-08-12T06:22:56;10.07;;;5.75;;
39890;SDS011;25564;53.312;9.790;2023-08-12T06:25:27;10.75;;;5.63;;
39890;SDS011;25564;53.312;9.790;2023-08-12T06:27:59;15.15;;;5.82;;
39890;SDS011;25564;53.312;9.790;2023-08-12T06:30:30;9.18;;;6.50;;
39890;SDS011;25564;53.312;9.790;2023-08-12T06:33:02;9.35;;;6.20;;
39890;SDS011;25564;53.312;9.790;2023-08-12T06:35:34;10.15;;;6.65;;
39890;SDS011;25564;53.312;9.790;2023-08-12T06:38:05;11.07;;;6.63;;
39890;SDS011;25564;53.312;9.790;2023-08-12T06:40:39;10.57;;;6.60;;
39890;SDS011;25564;53.312;9.790;2023-08-12T06:43:11;11.95;;;7.30;;
39890;SDS011;25564;53.312;9.790;2023-08-12T06:45:43;10.57;;;6.93;;
39890;SDS011;25564;53.312;9.790;2023-08-12T06:48:14;12.35;;;6.65;;
39890;SDS011;25564;53.312;9.790;2023-08-12T06:50:45;10.63;;;6.40;;
39890;SDS011;25564;53.312;9.790;2023-08-12T06:53:17;10.45;;;7.03;;
39890;SDS011;25564;53.312;9.790;2023-08-12T06:55:48;13.68;;;7.93;;
39890;SDS011;25564;53.312;9.790;2023-08-12T06:58:20;14.10;;;8.15;;
39890;SDS011;25564;53.312;9.790;2023-08-12T07:00:53;14.30;;;8.07;;
39890;SDS011;25564;53.312;9.790;2023-08-12T07:03:25;16.58;;;8.73;;
39890;SDS011;25564;53.312;9.790;2023-08-12T07:05:56;12.65;;;7.43;;
39890;SDS011;25564;53.312;9.790;2023-08-12T07:08:28;17.67;;;8.63;;
39890;SDS011;25564;53.312;9.790;2023-08-12T07:10:59;12.35;;;8.45;;
39890;SDS011;25564;53.312;9.790;2023-08-12T07:13:31;13.77;;;8.60;;
39890;SDS011;25564;53.312;9.790;2023-08-12T07:16:02;16.33;;;9.13;;
39890;SDS011;25564;53.312;9.790;2023-08-12T07:18:34;16.17;;;8.82;;
39890;SDS011;25564;53.312;9.790;2023-08-12T07:21:06;12.68;;;8.32;;
39890;SDS011;25564;53.312;9.790;2023-08-12T07:23:37;11.57;;;8.30;;
39890;SDS011;25564;53.312;9.790;2023-08-12T07:26:12;11.23;;;7.22;;
39890;SDS011;25564;53.312;9.790;2023-08-12T07:28:43;15.88;;;8.82;;
39890;SDS011;25564;53.312;9.790;2023-08-12T07:31:15;15.10;;;8.18;;
39890;SDS011;25564;53.312;9.790;2023-08-12T07:33:46;18.92;;;8.15;;
39890;SDS011;25564;53.312;9.790;2023-08-12T07:36:18;13.10;;;7.65;;
39890;SDS011;25564;53.312;9.790;2023-08-12T07:38:49;13.20;;;8.38;;
39890;SDS011;25564;53.312;9.790;2023-08-12T07:41:21;13.25;;;8.32;;
39890;SDS011;25564;53.312;9.790;2023-08-12T07:43:52;11.90;;;7.68;;
39890;SDS011;25564;53.312;9.790;2023-08-12T07:46:24;15.77;;;8.45;;
39890;SDS011;25564;53.312;9.790;2023-08-12T07:48:56;13.90;;;8.38;;
39890;SDS011;25564;53.312;9.790;2023-08-12T07:51:27;16.40;;;8.23;;
39890;SDS011;25564;53.312;9.790;2023-08-12T07:53:59;15.60;;;9.10;;
39890;SDS011;25564;53.312;9.790;2023-08-12T07:56:30;15.52;;;10.30;;
39890;SDS011;25564;53.312;9.790;2023-08-12T07:59:02;18.70;;;11.80;;
39890;SDS011;25564;53.312;9.790;2023-08-12T08:01:34;19.88;;;9.82;;
39890;SDS011;25564;53.312;9.790;2023-08-12T08:04:09;14.93;;;9.40;;
39890;SDS011;25564;53.312;9.790;2023-08-12T08:06:40;13.60;;;8.35;;
39890;SDS011;25564;53.312;9.790;2023-08-12T08:09:12;16.23;;;9.38;;
39890;SDS011;25564;53.312;9.790;2023-08-12T08:11:43;13.45;;;8.18;;
39890;SDS011;25564;53.312;9.790;2023-08-12T08:14:16;12.13;;;8.07;;
39890;SDS011;25564;53.312;9.790;2023-08-12T08:16:47;12.40;;;7.85;;
39890;SDS011;25564;53.312;9.790;2023-08-12T08:19:19;15.60;;;8.32;;
39890;SDS011;25564;53.312;9.790;2023-08-12T08:21:50;13.52;;;7.90;;
39890;SDS011;25564;53.312;9.790;2023-08-12T08:24:22;10.73;;;8.10;;
39890;SDS011;25564;53.312;9.790;2023-08-12T08:26:53;16.42;;;8.73;;
39890;SDS011;25564;53.312;9.790;2023-08-12T08:29:25;14.02;;;6.88;;
39890;SDS011;25564;53.312;9.790;2023-08-12T08:31:56;18.25;;;7.93;;
39890;SDS011;25564;53.312;9.790;2023-08-12T08:34:27;12.98;;;7.15;;
39890;SDS011;25564;53.312;9.790;2023-08-12T08:36:59;11.30;;;6.80;;
39890;SDS011;25564;53.312;9.790;2023-08-12T08:39:30;10.73;;;6.65;;
39890;SDS011;25564;53.312;9.790;2023-08-12T08:42:02;12.65;;;6.93;;
39890;SDS011;25564;53.312;9.790;2023-08-12T08:44:36;15.75;;;7.35;;
39890;SDS011;25564;53.312;9.790;2023-08-12T08:47:13;12.18;;;7.38;;
39890;SDS011;25564;53.312;9.790;2023-08-12T08:49:47;11.17;;;6.70;;
39890;SDS011;25564;53.312;9.790;2023-08-12T08:52:19;9.77;;;6.35;;
39890;SDS011;25564;53.312;9.790;2023-08-12T08:54:51;8.43;;;5.13;;
39890;SDS011;25564;53.312;9.790;2023-08-12T08:57:23;8.52;;;5.40;;
39890;SDS011;25564;53.312;9.790;2023-08-12T09:00:15;10.25;;;5.53;;
39890;SDS011;25564;53.312;9.790;2023-08-12T09:02:49;13.40;;;5.63;;
39890;SDS011;25564;53.312;9.790;2023-08-12T09:05:22;11.02;;;5.25;;
39890;SDS011;25564;53.312;9.790;2023-08-12T09:07:54;10.35;;;5.50;;
39890;SDS011;25564;53.312;9.790;2023-08-12T09:10:27;7.95;;;5.07;;
39890;SDS011;25564;53.312;9.790;2023-08-12T09:13:00;8.85;;;4.95;;
39890;SDS011;25564;53.312;9.790;2023-08-12T09:15:33;8.63;;;5.03;;
39890;SDS011;25564;53.312;9.790;2023-08-12T09:18:05;9.60;;;5.05;;
39890;SDS011;25564;53.312;9.790;2023-08-12T09:20:37;9.43;;;4.40;;
39890;SDS011;25564;53.312;9.790;2023-08-12T09:23:09;6.10;;;3.78;;
39890;SDS011;25564;53.312;9.790;2023-08-12T09:25:42;9.85;;;4.45;;
39890;SDS011;25564;53.312;9.790;2023-08-12T09:28:16;6.53;;;3.70;;
39890;SDS011;25564;53.312;9.790;2023-08-12T09:30:51;6.35;;;3.78;;
39890;SDS011;25564;53.312;9.790;2023-08-12T09:33:26;7.82;;;4.00;;
39890;SDS011;25564;53.312;9.790;2023-08-12T09:35:58;6.28;;;3.60;;
39890;SDS011;25564;53.312;9.790;2023-08-12T09:38:29;4.82;;;3.25;;
39890;SDS011;25564;53.312;9.790;2023-08-12T09:41:01;5.78;;;3.67;;
39890;SDS011;25564;53.312;9.790;2023-08-12T09:43:33;6.57;;;3.53;;
39890;SDS011;25564;53.312;9.790;2023-08-12T09:46:05;5.90;;;4.00;;
39890;SDS011;25564;53.312;9.790;2023-08-12T09:48:36;7.00;;;3.72;;
39890;SDS011;25564;53.312;9.790;2023-08-12T09:51:08;6.18;;;3.20;;
39890;SDS011;25564;53.312;9.790;2023-08-12T09:53:40;9.80;;;3.97;;
39890;SDS011;25564;53.312;9.790;2023-08-12T09:56:13;7.35;;;3.50;;
39890;SDS011;25564;53.312;9.790;2023-08-12T09:58:48;7.93;;;3.80;;
39890;SDS011;25564;53.312;9.790;2023-08-12T10:01:20;4.85;;;3.30;;
39890;SDS011;25564;53.312;9.790;2023-08-12T10:03:53;5.60;;;3.38;;
39890;SDS011;25564;53.312;9.790;2023-08-12T10:06:25;10.68;;;4.40;;
39890;SDS011;25564;53.312;9.790;2023-08-12T10:08:58;5.47;;;3.45;;
39890;SDS011;25564;53.312;9.790;2023-08-12T10:11:29;6.47;;;3.45;;
39890;SDS011;25564;53.312;9.790;2023-08-12T10:14:02;5.10;;;2.90;;
39890;SDS011;25564;53.312;9.790;2023-08-12T10:16:35;5.07;;;3.00;;
39890;SDS011;25564;53.312;9.790;2023-08-12T10:19:10;5.10;;;3.00;;
39890;SDS011;25564;53.312;9.790;2023-08-12T10:21:48;5.70;;;3.20;;
39890;SDS011;25564;53.312;9.790;2023-08-12T10:24:20;4.72;;;2.78;;
39890;SDS011;25564;53.312;9.790;2023-08-12T10:26:52;6.13;;;3.42;;
39890;SDS011;25564;53.312;9.790;2023-08-12T10:29:24;7.50;;;3.50;;
39890;SDS011;25564;53.312;9.790;2023-08-12T10:31:56;5.20;;;3.60;;
39890;SDS011;25564;53.312;9.790;2023-08-12T10:34:28;5.43;;;3.17;;
39890;SDS011;25564;53.312;9.790;2023-08-12T10:37:01;4.63;;;3.20;;
39890;SDS011;25564;53.312;9.790;2023-08-12T10:39:34;4.10;;;2.80;;
39890;SDS011;25564;53.312;9.790;2023-08-12T10:42:06;5.53;;;3.53;;
39890;SDS011;25564;53.312;9.790;2023-08-12T10:44:38;3.15;;;2.28;;
39890;SDS011;25564;53.312;9.790;2023-08-12T10:47:11;4.30;;;2.85;;
39890;SDS011;25564;53.312;9.790;2023-08-12T10:49:44;5.05;;;2.67;;
39890;SDS011;25564;53.312;9.790;2023-08-12T10:52:29;3.28;;;2.33;;
39890;SDS011;25564;53.312;9.790;2023-08-12T10:57:54;3.88;;;2.50;;
39890;SDS011;25564;53.312;9.790;2023-08-12T11:00:27;5.80;;;3.10;;
39890;SDS011;25564;53.312;9.790;2023-08-12T11:03:00;6.00;;;2.88;;
39890;SDS011;25564;53.312;9.790;2023-08-12T11:05:37;4.55;;;2.63;;
39890;SDS011;25564;53.312;9.790;2023-08-12T11:08:08;3.67;;;2.25;;
39890;SDS011;25564;53.312;9.790;2023-08-12T11:10:43;3.13;;;2.45;;
39890;SDS011;25564;53.312;9.790;2023-08-12T11:13:15;3.50;;;2.65;;
39890;SDS011;25564;53.312;9.790;2023-08-12T11:15:47;3.72;;;2.42;;
39890;SDS011;25564;53.312;9.790;2023-08-12T11:18:19;4.78;;;2.90;;
39890;SDS011;25564;53.312;9.790;2023-08-12T11:20:51;5.13;;;2.28;;
39890;SDS011;25564;53.312;9.790;2023-08-12T11:23:24;4.57;;;2.67;;
39890;SDS011;25564;53.312;9.790;2023-08-12T11:25:55;5.82;;;2.63;;
39890;SDS011;25564;53.312;9.790;2023-08-12T11:28:29;4.53;;;2.95;;
39890;SDS011;25564;53.312;9.790;2023-08-12T11:31:00;5.13;;;3.03;;
39890;SDS011;25564;53.312;9.790;2023-08-12T11:33:32;4.75;;;2.90;;
39890;SDS011;25564;53.312;9.790;2023-08-12T11:36:03;5.28;;;3.42;;
39890;SDS011;25564;53.312;9.790;2023-08-12T11:38:35;6.32;;;3.20;;
39890;SDS011;25564;53.312;9.790;2023-08-12T11:41:08;8.32;;;3.92;;
39890;SDS011;25564;53.312;9.790;2023-08-12T11:43:39;7.32;;;3.65;;
39890;SDS011;25564;53.312;9.790;2023-08-12T11:46:11;9.38;;;3.92;;
39890;SDS011;25564;53.312;9.790;2023-08-12T11:48:43;5.22;;;3.10;;
39890;SDS011;25564;53.312;9.790;2023-08-12T11:51:14;7.07;;;4.15;;
39890;SDS011;25564;53.312;9.790;2023-08-12T11:53:46;7.70;;;3.60;;
39890;SDS011;25564;53.312;9.790;2023-08-12T11:56:17;5.60;;;3.58;;
39890;SDS011;25564;53.312;9.790;2023-08-12T11:58:51;7.32;;;4.13;;
39890;SDS011;25564;53.312;9.790;2023-08-12T12:01:27;6.95;;;4.03;;
39890;SDS011;25564;53.312;9.790;2023-08-12T12:04:00;7.43;;;4.80;;
39890;SDS011;25564;53.312;9.790;2023-08-12T12:06:38;5.28;;;3.55;;
39890;SDS011;25564;53.312;9.790;2023-08-12T12:09:10;6.68;;;4.35;;
39890;SDS011;25564;53.312;9.790;2023-08-12T12:11:41;5.35;;;3.75;;
39890;SDS011;25564;53.312;9.790;2023-08-12T12:14:13;7.53;;;3.83;;
39890;SDS011;25564;53.312;9.790;2023-08-12T12:16:45;7.30;;;3.90;;
39890;SDS011;25564;53.312;9.790;2023-08-12T12:19:19;6.07;;;3.83;;
39890;SDS011;25564;53.312;9.790;2023-08-12T12:21:52;6.97;;;3.85;;
39890;SDS011;25564;53.312;9.790;2023-08-12T12:24:28;6.63;;;4.15;;
39890;SDS011;25564;53.312;9.790;2023-08-12T12:27:00;5.35;;;4.10;;
39890;SDS011;25564;53.312;9.790;2023-08-12T12:29:34;7.07;;;4.22;;
39890;SDS011;25564;53.312;9.790;2023-08-12T12:32:05;6.90;;;3.75;;
39890;SDS011;25564;53.312;9.790;2023-08-12T12:34:37;9.30;;;4.10;;
39890;SDS011;25564;53.312;9.790;2023-08-12T12:37:09;8.02;;;4.32;;
39890;SDS011;25564;53.312;9.790;2023-08-12T12:39:41;8.90;;;4.25;;
39890;SDS011;25564;53.312;9.790;2023-08-12T12:42:13;6.00;;;3.88;;
39890;SDS011;25564;53.312;9.790;2023-08-12T12:44:45;8.85;;;4.47;;
39890;SDS011;25564;53.312;9.790;2023-08-12T12:47:16;8.57;;;5.72;;
39890;SDS011;25564;53.312;9.790;2023-08-12T12:49:49;8.88;;;4.50;;
39890;SDS011;25564;53.312;9.790;2023-08-12T12:52:20;6.10;;;4.47;;
39890;SDS011;25564;53.312;9.790;2023-08-12T12:54:52;10.52;;;4.93;;
39890;SDS011;25564;53.312;9.790;2023-08-12T12:57:23;8.57;;;4.47;;
39890;SDS011;25564;53.312;9.790;2023-08-12T12:59:55;9.75;;;4.15;;
39890;SDS011;25564;53.312;9.790;2023-08-12T13:02:26;7.28;;;4.07;;
39890;SDS011;25564;53.312;9.790;2023-08-12T13:04:58;7.13;;;4.15;;
39890;SDS011;25564;53.312;9.790;2023-08-12T13:07:29;8.77;;;4.53;;
39890;SDS011;25564;53.312;9.790;2023-08-12T13:10:00;7.10;;;4.85;;
39890;SDS011;25564;53.312;9.790;2023-08-12T13:12:32;6.93;;;4.82;;
39890;SDS011;25564;53.312;9.790;2023-08-12T13:15:04;7.68;;;5.47;;
39890;SDS011;25564;53.312;9.790;2023-08-12T13:17:35;8.00;;;5.22;;
39890;SDS011;25564;53.312;9.790;2023-08-12T13:20:07;7.43;;;5.10;;
39890;SDS011;25564;53.312;9.790;2023-08-12T13:22:40;11.90;;;6.07;;
39890;SDS011;25564;53.312;9.790;2023-08-12T13:25:12;10.48;;;5.90;;
39890;SDS011;25564;53.312;9.790;2023-08-12T13:27:43;8.80;;;5.45;;
39890;SDS011;25564;53.312;9.790;2023-08-12T13:30:15;7.00;;;4.82;;
39890;SDS011;25564;53.312;9.790;2023-08-12T13:32:46;7.40;;;4.80;;
39890;SDS011;25564;53.312;9.790;2023-08-12T13:35:18;7.70;;;5.13;;
39890;SDS011;25564;53.312;9.790;2023-08-12T13:37:50;8.20;;;4.97;;
39890;SDS011;25564;53.312;9.790;2023-08-12T13:40:25;6.18;;;4.78;;
39890;SDS011;25564;53.312;9.790;2023-08-12T13:42:56;9.82;;;5.13;;
39890;SDS011;25564;53.312;9.790;2023-08-12T13:45:28;9.27;;;4.93;;
39890;SDS011;25564;53.312;9.790;2023-08-12T13:48:00;8.40;;;4.43;;
39890;SDS011;25564;53.312;9.790;2023-08-12T13:50:31;7.20;;;4.30;;
39890;SDS011;25564;53.312;9.790;2023-08-12T13:53:04;8.77;;;5.13;;
39890;SDS011;25564;53.312;9.790;2023-08-12T13:55:35;6.43;;;4.95;;
39890;SDS011;25564;53.312;9.790;2023-08-12T13:58:06;8.73;;;4.85;;
39890;SDS011;25564;53.312;9.790;2023-08-12T14:00:38;9.52;;;5.38;;
39890;SDS011;25564;53.312;9.790;2023-08-12T14:03:09;7.13;;;4.75;;
39890;SDS011;25564;53.312;9.790;2023-08-12T14:05:41;8.15;;;4.82;;
39890;SDS011;25564;53.312;9.790;2023-08-12T14:08:13;10.25;;;4.90;;
39890;SDS011;25564;53.312;9.790;2023-08-12T14:10:47;6.57;;;4.72;;
39890;SDS011;25564;53.312;9.790;2023-08-12T14:13:19;8.13;;;5.20;;
39890;SDS011;25564;53.312;9.790;2023-08-12T14:15:51;8.85;;;5.07;;
39890;SDS011;25564;53.312;9.790;2023-08-12T14:18:25;9.52;;;5.85;;
39890;SDS011;25564;53.312;9.790;2023-08-12T14:20:57;8.65;;;5.07;;
39890;SDS011;25564;53.312;9.790;2023-08-12T14:23:28;8.32;;;5.53;;
39890;SDS011;25564;53.312;9.790;2023-08-12T14:26:00;7.75;;;5.18;;
39890;SDS011;25564;53.312;9.790;2023-08-12T14:28:32;7.68;;;4.80;;
39890;SDS011;25564;53.312;9.790;2023-08-12T14:31:03;6.90;;;4.95;;
39890;SDS011;25564;53.312;9.790;2023-08-12T14:33:35;9.10;;;5.43;;
39890;SDS011;25564;53.312;9.790;2023-08-12T14:36:08;8.88;;;5.80;;
39890;SDS011;25564;53.312;9.790;2023-08-12T14:38:40;7.13;;;5.20;;
39890;SDS011;25564;53.312;9.790;2023-08-12T14:41:11;9.05;;;5.35;;
39890;SDS011;25564;53.312;9.790;2023-08-12T14:43:43;7.63;;;5.10;;
39890;SDS011;25564;53.312;9.790;2023-08-12T14:46:14;10.27;;;5.28;;
39890;SDS011;25564;53.312;9.790;2023-08-12T14:48:46;10.70;;;4.97;;
39890;SDS011;25564;53.312;9.790;2023-08-12T14:51:17;9.93;;;5.18;;
39890;SDS011;25564;53.312;9.790;2023-08-12T14:53:49;7.25;;;4.72;;
39890;SDS011;25564;53.312;9.790;2023-08-12T14:56:20;7.82;;;4.65;;
39890;SDS011;25564;53.312;9.790;2023-08-12T14:58:52;7.03;;;5.25;;
39890;SDS011;25564;53.312;9.790;2023-08-12T15:01:23;8.77;;;4.93;;
39890;SDS011;25564;53.312;9.790;2023-08-12T15:03:58;10.10;;;4.75;;
39890;SDS011;25564;53.312;9.790;2023-08-12T15:06:30;6.53;;;4.50;;
39890;SDS011;25564;53.312;9.790;2023-08-12T15:09:01;7.05;;;4.18;;
39890;SDS011;25564;53.312;9.790;2023-08-12T15:11:33;8.75;;;4.50;;
39890;SDS011;25564;53.312;9.790;2023-08-12T15:14:05;5.70;;;3.67;;
39890;SDS011;25564;53.312;9.790;2023-08-12T15:16:37;6.05;;;4.05;;
39890;SDS011;25564;53.312;9.790;2023-08-12T15:19:08;5.82;;;3.78;;
39890;SDS011;25564;53.312;9.790;2023-08-12T15:21:40;5.68;;;3.78;;